YUL weather

Montreal / Pierre Elliott Trudeau International Airport
Montréal, Quebec, Canada

Public forecast

Using degrees Celsius for public forecast. Weather courtesy of forecast.io.

METAR (pilot weather report)

Retrieved 2017/04/27 01:00 UTC (6 minutes ago):

CYUL 270100Z 02013G19KT 15SM OVC007 13/12 A2980 RMK ST8 SLP092

TAF (pilot weather forecast)

Forecast is more than 12 hours old.

Retrieved 2017/04/26 00:42 UTC (1 day ago):

TAF CYUL 262338Z 2700/2724 01012KT P6SM SCT008 TEMPO 2700/2703 BKN008 FM270300 03007KT P6SM FEW002 SCT020 TEMPO 2703/2711 5SM BR SCT002 BKN020 PROB30 2703/2710 1/2SM FG BKN002 FM271100 07008KT P6SM FEW007 BKN020 FM271700 10010KT P6SM BKN030 FM272000 11012KT P6SM SCT040 RMK NXT FCST BY 270300Z